Terminal Aerodrome Forecast
Issued by NWS Wilmington, OH

Current Version | Previous Version | Graphics & Text | Print | Product List | Glossary On
Versions: 1 2 3 4 5 6 7 8 9 10 11 12 13 14 15 16 17 18 19 20 21
000
FTUS41 KILN 292300 RRA
TAFILN
TAF
KILN 292343Z 3000/3024 18011KT P6SM OVC090
     FM300100 21010KT P6SM -SHRA BKN050 OVC080
     FM300500 26012KT P6SM SCT025 BKN040
     FM300800 28011KT P6SM SCT022
      TEMPO 3011/3013 BKN022
     FM301700 28012G20KT P6SM SCT040=

USA.gov is the U.S. government's official web portal to all federal, state and local government web resources and services.